• Join FlightAware (Why Join?)
  • Login
  • US Flag 
05:43PM EDT


 

Airport Tracker/Info


-or-


 

Live Flight TrackerFlight Track Log ✈ AWE3874 ✈ 24-Apr-2013 ✈ KCLT - KMOB

Flight Track Log - Related Links

Times and Time Zones

All times are in EDT time to prevent confusion due to time zone crossing. See the AWE3874 flight status page for this flight to view local times or setup timezone preferences in your user account.

Time Position Orientation Groundspeed Altitude Reporting Facility
EDT Latitude Longitude Course Direction KTS MPH feet Rate Location/Type
01:19PM 35.1850 -80.9511 246° West 171 197 1,600  Level Atlanta Center
01:20PM 35.1267 -80.9583 186° South 200 230 3,700 1,800 Climbing Atlanta Center
01:21PM 35.0989 -81.0153 239° Southwest 234 269 5,500 1,800 Climbing Atlanta Center
01:22PM 35.1873 -81.2507 199° South  Level FlightAware Approximate
01:22PM 35.0944 -81.0942 266° West 239 275 7,400  Level Atlanta Center
01:23PM 35.0838 -81.2832 192° South  Level FlightAware Approximate
01:23PM 35.0906 -81.1856 267° West 244 281 8,000  Level Atlanta Center
01:24PM 35.0477 -81.4063 246° West  Level FlightAware Approximate
01:24PM 35.0861 -81.2722 266° West 257 296 8,000  Level Atlanta Center
01:25PM 35.0043 -81.5259 246° West  Level FlightAware Approximate
01:25PM 35.0672 -81.3592 255° West 257 296 9,900  Level Atlanta Center
01:26PM 35.0400 -81.4486 250° West 281 323 10,900 1,380 Climbing Atlanta Center
01:27PM 35.0108 -81.5486 250° West 305 351 12,700 1,680 Climbing Atlanta Center
01:28PM 34.9794 -81.6483 249° West 317 365 14,300 1,500 Climbing Atlanta Center
01:29PM 34.9481 -81.7556 250° West 329 379 15,800 1,440 Climbing Atlanta Center
01:30PM 34.9058 -81.8531 242° Southwest 334 384 17,200 1,020 Climbing Atlanta Center
01:31PM 34.8594 -81.9378 236° Southwest 339 390 17,900 900 Climbing Atlanta Center
01:32PM 34.8047 -82.0303 234° Southwest 344 396 19,100 1,080 Climbing Atlanta Center
01:33PM 34.7478 -82.1275 235° Southwest 354 407 20,100 1,020 Climbing Atlanta Center
01:34PM 34.6931 -82.2300 237° Southwest 360 414 21,200 900 Climbing Atlanta Center
01:35PM 34.6358 -82.3247 234° Southwest 360 414 21,900 660 Climbing Atlanta Center
01:36PM 34.5789 -82.4267 236° Southwest 365 420 22,600 900 Climbing Atlanta Center
01:37PM 34.5156 -82.5364 235° Southwest 365 420 23,800 780 Climbing Atlanta Center
01:38PM 34.4583 -82.6356 235° Southwest 365 420 24,200 420 Climbing Atlanta Center
01:39PM 34.3989 -82.7397 235° Southwest 376 433 24,700 420 Climbing Atlanta Center
01:40PM 34.3436 -82.8336 235° Southwest 384 442 25,100 600 Climbing Atlanta Center
01:41PM 34.2839 -82.9400 236° Southwest 389 448 25,900 720 Climbing Atlanta Center
01:42PM 34.2222 -83.0464 235° Southwest 389 448 26,600 480 Climbing Atlanta Center
01:43PM 34.1625 -83.1475 234° Southwest 383 441 26,900 420 Climbing Atlanta Center
01:44PM 34.0986 -83.2561 235° Southwest 393 452 27,500 540 Climbing Atlanta Center
01:45PM 34.0367 -83.3594 234° Southwest 393 452 28,000 300 Climbing Atlanta Center
01:46PM 33.9683 -83.4728 234° Southwest 388 447 28,100 300 Climbing Atlanta Center
01:47PM 33.9039 -83.5808 234° Southwest 394 453 28,700 780 Climbing Atlanta Center
01:48PM 33.8417 -83.6886 235° Southwest 394 453 29,700 600 Climbing Atlanta Center
01:49PM 33.7814 -83.7889 234° Southwest 389 448 30,000 120 Climbing Atlanta Center
01:50PM 33.7169 -83.8939 234° Southwest 389 448 30,000  Level Atlanta Center
01:51PM 33.6544 -83.9989 234° Southwest 389 448 30,000 300 Level Atlanta Center
01:52PM 33.5897 -84.1061 234° Southwest 395 455 30,600 600 Climbing Atlanta Center
01:53PM 33.5333 -84.1983 234° Southwest 395 455 31,200 600 Climbing Atlanta Center
01:54PM 33.4725 -84.3028 235° Southwest 390 449 31,900 360 Climbing Atlanta Center
01:55PM 33.4117 -84.4047 234° Southwest 385 443 32,000  Climbing Atlanta Center
01:56PM 33.3489 -84.5089 234° Southwest 390 449 32,000  Level Atlanta Center
01:57PM 33.2836 -84.6178 234° Southwest 400 460 32,000  Level Atlanta Center
01:58PM 33.2119 -84.7339 234° Southwest 400 460 32,000  Level Atlanta Center
01:59PM 33.1467 -84.8403 234° Southwest 405 466 32,000  Level Atlanta Center
02:00PM 33.0833 -84.9436 234° Southwest 405 466 32,000  Level Atlanta Center
02:01PM 33.0178 -85.0522 234° Southwest 405 466 32,000  Level Atlanta Center
02:02PM 32.9669 -85.1331 233° Southwest 405 466 32,000  Level Atlanta Center
02:03PM 32.8972 -85.2436 233° Southwest 400 460 32,000  Level Atlanta Center
02:04PM 32.8333 -85.3492 234° Southwest 400 460 32,000  Level Atlanta Center
02:05PM 32.7697 -85.4494 233° Southwest 400 460 32,000  Level Atlanta Center
02:06PM 32.7036 -85.5544 233° Southwest 405 466 32,000  Level Atlanta Center
02:07PM 32.6397 -85.6594 234° Southwest 405 466 32,000  Level Atlanta Center
02:08PM 32.5778 -85.7594 234° Southwest 400 460 32,000  Level Atlanta Center
02:09PM 32.5117 -85.8617 233° Southwest 400 460 32,000  Level Atlanta Center
02:10PM 32.4433 -85.9686 233° Southwest 405 466 32,000  Level Atlanta Center
02:11PM 32.3811 -86.0681 233° Southwest 405 466 32,000  Level Atlanta Center
02:12PM 32.3128 -86.1697 232° Southwest 399 459 32,000  Level Atlanta Center
02:13PM 32.2544 -86.2689 235° Southwest 394 453 32,000  Level Atlanta Center
02:14PM 32.1817 -86.3800 232° Southwest 394 453 32,000 -480 Level Atlanta Center
02:15PM 32.1236 -86.4667 232° Southwest 385 443 31,100 -1,200 Descending Atlanta Center
02:16PM 32.0503 -86.5750 231° Southwest 402 463 29,700 -1,500 Descending Atlanta Center
02:17PM 31.9583 -86.6875 226° Southwest 434 499 28,100 -1,500 Descending Atlanta Center
02:18PM 31.8831 -86.7903 229° Southwest 434 499 26,700 -1,440 Descending Atlanta Center
02:19PM 31.8075 -86.8956 230° Southwest 434 499 25,300 -1,440 Descending Atlanta Center
02:20PM 31.7319 -87.0006 230° Southwest 428 493 23,900 -1,440 Descending Atlanta Center
02:22PM 31.6189 -87.1603 230° Southwest 393 452 21,500 -1,440 Descending Houston Center
02:23PM 31.5539 -87.2503 230° Southwest 368 423 20,100 -1,380 Descending Houston Center
02:24PM 31.4867 -87.3411 229° Southwest 367 422 18,700 -1,440 Descending Houston Center
02:25PM 31.4067 -87.4481 229° Southwest 365 420 17,200 -1,320 Descending Houston Center
02:26PM 31.3419 -87.5339 229° Southwest 355 409 16,000 -1,260 Descending Houston Center
02:27PM 31.2786 -87.6161 228° Southwest 342 394 14,700 -1,440 Descending Houston Center
02:28PM 31.2169 -87.7006 230° Southwest 341 392 13,100 -1,440 Descending Houston Center
02:29PM 31.1739 -87.7817 238° Southwest 294 338 11,800 -1,260 Descending Houston Center
02:30PM 31.1419 -87.8592 244° Southwest 268 308 10,500 -1,380 Descending Houston Center
02:31PM 31.1053 -87.9469 244° Southwest 251 289 9,000 -1,500 Descending Houston Center